Česky Dansk Deutsch English Español Suomi Français Magyar Italiano Nederlands norsk Polski Português svenska Türkçe

 

Het Weer

Yaounde (Cameroon)

13:00, 21 augustus 2016 (GMT)

NWNNE
WE
SWSSE
Home            
Yaounde Younde Ii Bafia Abong-Mbang Bitam Douala Obs. Kribi Yoko Nkongsamba Koundja Tiko Lomie Bamenda Malabo/Fernando Poo Batouri Mamfe Banyo Mitzic Betare-Oya Souanke Calabar Cocobeach Makokou

Om een weerknop op uw website of weblog te plaatsen, copieer onderstaande code en plak die in uw pagina. In het eerste vakje staat HTML-code, in het tweede vakje UBB-code.


Add to Google

Details

Wind speed:1 bf, 3 kn, 1.5 m/s, 3.5 miles/h, 5.6 km/h
Wind direction:SE, 130° - W, 260°
Visibility:Greater than 10000 m, 10 km, 32800 ft, 6.2 miles
Clouds:Durchbrochene Bewölkung at 2000 ft, 610 m
Temperature:28°C, 82°F
Gefühlte Temperatur:30°C, 86°F
Dew-point:21°C, 70°F
Atmospheric pressure:1017 hPa, 762.8 mmHg, 30.03 inHg, 1.004 atm
Relative humidity:65.8 %
METAR:FKYS 211300Z 22003KT 130V260 9999 BKN020 28/21 Q1017 NOSIG

Snelkoppelingen

Actuele weersinformatie van de hele wereld. Voeg locaties toe met het plus (+) symbool. Deze snelkoppelingen kunnen worden toegevoegd aan Google.

Lid van de Technetium groep

website free tracking
StatCounter NetStat W3C Validator

24-04-2018 12:19:55
astro.technetium.be money.technetium.be phote.technetium.be tafeltennistafel.technetium.be www.ligfiets.net